»·PEaware :: N667SB KSBA-KRNO

N667SB :: KSBA-KRNO

FLIGHT INFORMATION

Flight Status: Arrived
Operator: Privately registered:
United States
More flights under this callsign
Pilot: Dean S. (16265)
Aircraft: CESSNA 421 GOLDEN EAGLE
(C421)
More flights by this aircraft type
Origin: KSBA Santa Barbara Mun
United States
Destination: KRNO Reno/Tahoe Intl
United States
More flights between these airports :: More routes between these airports
Route: +
File this flight plan on PilotEdge
Remarks:
Altitude:
(Current/Filed)
7,500ft
Speed:
(Current/Filed)
0kts
Departed: 04-Sep-18 02:39 PM
Arrived: 04-Sep-18 04:16 PM
Distance/Time
Traveled:
305nm/1:37
Distance/Time
To Go:
Arrived

Flight Plot

Page will automatically refresh every two minutes.

Flight plan parsing failed; only flown route is shown


Map Options




Map Legend


Flown Route
Filed Route
Departure Airport
Arrival Airport
Navaid (VOR, NDB)
Fix

Horizontal Profiles

Position Reports

Time Latitude Longitude Heading Altitude Ground
Speed
04-Sep-18 14:31 34.429214 -119.844969 329 14ft 0kts
04-Sep-18 14:32 34.429214 -119.844969 329 14ft 0kts
04-Sep-18 14:33 34.429214 -119.844969 329 14ft 0kts
04-Sep-18 14:34 34.429214 -119.844969 329 14ft 0kts
04-Sep-18 14:35 34.429215 -119.844970 329 14ft 0kts
04-Sep-18 14:36 34.429215 -119.844970 329 14ft 0kts
04-Sep-18 14:37 34.429280 -119.844691 123 14ft 5kts
04-Sep-18 14:38 34.429932 -119.841986 71 14ft 0kts
04-Sep-18 14:39 34.429932 -119.841985 71 14ft 0kts
04-Sep-18 14:40 34.425928 -119.840187 166 14ft 93kts
04-Sep-18 14:41 34.393920 -119.828326 161 1129ft 140kts
04-Sep-18 14:42 34.353784 -119.812694 162 1103ft 147kts
04-Sep-18 14:43 34.313830 -119.798328 164 1112ft 151kts
04-Sep-18 14:44 34.272526 -119.784649 165 1276ft 160kts
04-Sep-18 14:45 34.229731 -119.770956 164 3195ft 158kts
04-Sep-18 14:46 34.187274 -119.757253 166 5188ft 155kts
04-Sep-18 14:47 34.173613 -119.786287 333 6998ft 158kts
04-Sep-18 14:48 34.216703 -119.806828 324 8546ft 175kts
04-Sep-18 14:49 34.264592 -119.823767 354 10063ft 187kts
04-Sep-18 14:50 34.317801 -119.829543 354 11572ft 196kts
04-Sep-18 14:51 34.373181 -119.835648 354 13082ft 202kts
04-Sep-18 14:52 34.429911 -119.841926 354 14583ft 206kts
04-Sep-18 14:53 34.487711 -119.848330 354 16087ft 209kts
04-Sep-18 14:54 34.549931 -119.855237 354 16269ft 248kts
04-Sep-18 14:55 34.619448 -119.862965 354 16102ft 249kts
04-Sep-18 14:56 34.688592 -119.870664 354 16096ft 248kts
04-Sep-18 14:57 34.757347 -119.878330 354 16095ft 248kts
04-Sep-18 14:58 34.826104 -119.886010 354 16095ft 248kts
04-Sep-18 14:59 34.895098 -119.893730 354 16088ft 248kts
04-Sep-18 15:00 34.963854 -119.901459 354 16083ft 248kts
04-Sep-18 15:01 35.032851 -119.909225 354 16082ft 248kts
04-Sep-18 15:02 35.101611 -119.916965 354 16080ft 248kts
04-Sep-18 15:03 35.170358 -119.924715 354 16080ft 248kts
04-Sep-18 15:04 35.239303 -119.932499 354 16089ft 248kts
04-Sep-18 15:05 35.308170 -119.940290 354 16065ft 248kts
04-Sep-18 15:06 35.376977 -119.948086 354 16059ft 248kts
04-Sep-18 15:07 35.445989 -119.955918 354 16054ft 248kts
04-Sep-18 15:08 35.514860 -119.963749 354 16037ft 248kts
04-Sep-18 15:09 35.583871 -119.971608 354 16039ft 248kts
04-Sep-18 15:10 35.652152 -119.978392 2 16295ft 240kts
04-Sep-18 15:11 35.719089 -119.969459 5 16479ft 246kts
04-Sep-18 15:12 35.787935 -119.960450 5 16473ft 249kts
04-Sep-18 15:13 35.856836 -119.951453 5 16472ft 249kts
04-Sep-18 15:14 35.926016 -119.942411 5 16461ft 249kts
04-Sep-18 15:15 35.994963 -119.933383 5 16460ft 249kts
04-Sep-18 15:16 36.063890 -119.924343 5 16458ft 249kts
04-Sep-18 15:17 36.133040 -119.915257 5 16456ft 249kts
04-Sep-18 15:18 36.201977 -119.906183 5 16455ft 249kts
04-Sep-18 15:19 36.270911 -119.897093 5 16453ft 249kts
04-Sep-18 15:20 36.339942 -119.887973 5 16489ft 249kts
04-Sep-18 15:21 36.408820 -119.878859 5 16490ft 249kts
04-Sep-18 15:22 36.477981 -119.869691 5 16491ft 249kts
04-Sep-18 15:23 36.546923 -119.860535 5 16491ft 249kts
04-Sep-18 15:24 36.615875 -119.851361 5 16490ft 249kts
04-Sep-18 15:25 36.685079 -119.842137 5 16489ft 249kts
04-Sep-18 15:26 36.754041 -119.832928 5 16490ft 249kts
04-Sep-18 15:27 36.822981 -119.823706 5 16492ft 249kts
04-Sep-18 15:28 36.892204 -119.816550 352 16500ft 249kts
04-Sep-18 15:29 36.960666 -119.830118 350 16506ft 249kts
04-Sep-18 15:30 37.029435 -119.843416 351 16509ft 249kts
04-Sep-18 15:32 37.097976 -119.856648 351 16512ft 249kts
04-Sep-18 15:33 37.166545 -119.869902 351 16516ft 249kts
04-Sep-18 15:34 37.235321 -119.883217 350 16521ft 249kts
04-Sep-18 15:35 37.303860 -119.896512 350 16530ft 249kts
04-Sep-18 15:36 37.372400 -119.909831 350 16538ft 249kts
04-Sep-18 15:37 37.441040 -119.923194 350 16578ft 249kts
04-Sep-18 15:38 37.509510 -119.936550 350 16594ft 249kts
04-Sep-18 15:39 37.578264 -119.949985 350 16607ft 249kts
04-Sep-18 15:40 37.646889 -119.963421 350 16575ft 250kts
04-Sep-18 15:41 37.715611 -119.976901 350 16572ft 249kts
04-Sep-18 15:42 37.784385 -119.990416 350 16584ft 249kts
04-Sep-18 15:43 37.852899 -120.003904 350 16602ft 249kts
04-Sep-18 15:44 37.921367 -120.017392 350 16616ft 249kts
04-Sep-18 15:45 37.990091 -120.030970 350 16616ft 249kts
04-Sep-18 15:46 38.058558 -120.044526 350 16647ft 248kts
04-Sep-18 15:47 38.127119 -120.058129 350 16665ft 249kts
04-Sep-18 15:48 38.195585 -120.071738 350 16671ft 249kts
04-Sep-18 15:49 38.264081 -120.085379 350 16682ft 249kts
04-Sep-18 15:50 38.332760 -120.099085 350 16696ft 249kts
04-Sep-18 15:51 38.401204 -120.112766 350 16713ft 249kts
04-Sep-18 15:52 38.470227 -120.126595 350 16146ft 255kts
04-Sep-18 15:53 38.541058 -120.140821 350 14644ft 257kts
04-Sep-18 15:54 38.611116 -120.154912 350 13147ft 254kts
04-Sep-18 15:55 38.677488 -120.168294 350 12777ft 227kts
04-Sep-18 15:56 38.738623 -120.180630 350 12805ft 220kts
04-Sep-18 15:57 38.798435 -120.192709 350 12819ft 219kts
04-Sep-18 15:58 38.858883 -120.204934 350 12825ft 219kts
04-Sep-18 15:59 38.919157 -120.217157 350 12830ft 219kts
04-Sep-18 16:00 38.979662 -120.229440 350 12830ft 219kts
04-Sep-18 16:01 39.039971 -120.241706 350 12830ft 219kts
04-Sep-18 16:02 39.100283 -120.253992 350 12831ft 219kts
04-Sep-18 16:03 39.161038 -120.266130 355 12617ft 224kts
04-Sep-18 16:04 39.210666 -120.223112 50 11326ft 227kts
04-Sep-18 16:05 39.249014 -120.162839 50 10843ft 202kts
04-Sep-18 16:06 39.283685 -120.108433 50 10849ft 196kts
04-Sep-18 16:07 39.319577 -120.052069 50 10844ft 207kts
04-Sep-18 16:08 39.356685 -119.994429 47 10818ft 209kts
04-Sep-18 16:09 39.404664 -119.958404 20 10773ft 187kts
04-Sep-18 16:10 39.442592 -119.919643 59 9533ft 166kts
04-Sep-18 16:11 39.461214 -119.868449 62 7762ft 148kts
04-Sep-18 16:12 39.480649 -119.824694 59 6360ft 129kts
04-Sep-18 16:13 39.500866 -119.788942 13 5148ft 111kts
04-Sep-18 16:14 39.530098 -119.786426 358 5161ft 108kts
04-Sep-18 16:15 39.558948 -119.783982 47 5324ft 105kts
04-Sep-18 16:16 39.536576 -119.767744 170 4881ft 107kts
04-Sep-18 16:17 39.508791 -119.766790 180 4419ft 68kts
04-Sep-18 16:18 39.502837 -119.766035 97 4419ft 0kts
04-Sep-18 16:19 39.502837 -119.766034 97 4419ft 0kts
04-Sep-18 16:20 39.501044 -119.764464 314 4419ft 5kts
04-Sep-18 16:21 39.501079 -119.764537 292 4419ft 0kts
04-Sep-18 16:22 39.501079 -119.764537 292 4419ft 0kts
04-Sep-18 16:23 39.501079 -119.764537 292 4419ft 0kts
04-Sep-18 16:24 39.501079 -119.764537 292 4419ft 0kts
04-Sep-18 16:25 39.501079 -119.764537 292 4419ft 0kts
04-Sep-18 16:26 39.501079 -119.764537 292 4419ft 0kts
04-Sep-18 16:27 39.501079 -119.764537 292 4419ft 0kts
04-Sep-18 16:28 39.501079 -119.764537 292 4419ft 0kts
04-Sep-18 16:29 39.501079 -119.764537 292 4419ft 0kts
04-Sep-18 16:30 39.501079 -119.764537 292 4419ft 0kts
04-Sep-18 16:31 39.501079 -119.764537 292 4419ft 0kts
04-Sep-18 16:32 39.501079 -119.764537 292 4419ft 0kts
04-Sep-18 16:33 39.501079 -119.764537 292 4419ft 0kts

Navigation Log

Ident Type
Flight plan parsing failed, navigation log unavailable